createdAt,value
2023-05-21T00:00:20.851Z,10.50
2023-05-21T00:02:47.492Z,8.87
2023-05-21T00:05:15.647Z,9.80
2023-05-21T00:07:42.323Z,9.63
2023-05-21T00:10:09.147Z,11.07
2023-05-21T00:12:35.845Z,10.07
2023-05-21T00:15:02.430Z,11.30
2023-05-21T00:17:29.070Z,9.30
2023-05-21T00:19:57.062Z,9.80
2023-05-21T00:22:24.055Z,10.67
2023-05-21T00:24:50.802Z,9.93
2023-05-21T00:27:17.401Z,11.17
2023-05-21T00:29:44.566Z,9.87
2023-05-21T00:32:11.391Z,11.90
2023-05-21T00:34:38.437Z,11.90
2023-05-21T00:37:04.974Z,8.83
2023-05-21T00:39:33.988Z,10.57
2023-05-21T00:42:04.235Z,9.87
2023-05-21T00:44:34.485Z,9.33
2023-05-21T00:47:02.382Z,11.07
2023-05-21T00:49:29.297Z,8.73
2023-05-21T00:51:55.958Z,7.63
2023-05-21T00:54:23.769Z,10.17
2023-05-21T00:56:50.896Z,8.33
2023-05-21T00:59:17.823Z,10.17
2023-05-21T01:01:45.779Z,9.93
2023-05-21T01:04:12.548Z,7.60
2023-05-21T01:06:39.086Z,6.47
2023-05-21T01:09:07.035Z,8.37
2023-05-21T01:11:53.901Z,9.07
2023-05-21T01:14:20.962Z,10.57
2023-05-21T01:16:49.713Z,5.90
2023-05-21T01:19:17.467Z,7.67
2023-05-21T01:21:49.708Z,7.37
2023-05-21T01:24:16.708Z,6.20
2023-05-21T01:26:44.398Z,6.67
2023-05-21T01:29:14.723Z,7.43
2023-05-21T01:31:52.773Z,7.80
2023-05-21T01:34:21.593Z,6.63
2023-05-21T01:36:55.940Z,6.17
2023-05-21T01:39:27.258Z,7.30
2023-05-21T01:41:55.080Z,6.73
2023-05-21T01:44:22.866Z,6.20
2023-05-21T01:46:50.075Z,5.57
2023-05-21T01:49:17.857Z,7.17
2023-05-21T01:51:44.509Z,5.80
2023-05-21T01:54:11.062Z,5.77
2023-05-21T01:56:37.648Z,6.63
2023-05-21T01:59:04.258Z,5.53
2023-05-21T02:01:31.326Z,5.77
2023-05-21T02:03:58.318Z,7.53
2023-05-21T02:06:27.208Z,6.17
2023-05-21T02:08:56.735Z,6.87
2023-05-21T02:11:23.634Z,6.80
2023-05-21T02:13:50.260Z,5.97
2023-05-21T02:16:16.941Z,8.33
2023-05-21T02:18:44.023Z,6.63
2023-05-21T02:21:13.608Z,6.23
2023-05-21T02:23:40.180Z,6.07
2023-05-21T02:26:06.757Z,6.30
2023-05-21T02:28:34.008Z,6.83
2023-05-21T02:31:01.242Z,5.20
2023-05-21T02:33:30.174Z,7.00
2023-05-21T02:35:56.764Z,6.80
2023-05-21T02:38:26.169Z,7.37
2023-05-21T02:40:53.509Z,6.97
2023-05-21T02:43:20.226Z,6.60
2023-05-21T02:45:46.824Z,6.20
2023-05-21T02:48:13.536Z,5.70
2023-05-21T02:50:40.135Z,6.70
2023-05-21T02:53:07.420Z,5.50
2023-05-21T02:55:34.108Z,7.27
2023-05-21T02:58:00.745Z,5.77
2023-05-21T03:00:27.344Z,6.70
2023-05-21T03:02:53.979Z,5.43
2023-05-21T03:05:20.960Z,7.37
2023-05-21T03:07:47.521Z,7.40
2023-05-21T03:10:14.147Z,6.40
2023-05-21T03:12:43.328Z,5.80
2023-05-21T03:15:10.177Z,7.17
2023-05-21T03:17:36.808Z,10.33
2023-05-21T03:20:05.384Z,6.10
2023-05-21T03:22:31.954Z,6.13
2023-05-21T03:24:58.496Z,6.33
2023-05-21T03:27:25.575Z,7.43
2023-05-21T03:29:55.152Z,7.10
2023-05-21T03:32:23.955Z,9.60
2023-05-21T03:34:50.914Z,7.43
2023-05-21T03:37:17.447Z,7.47
2023-05-21T03:39:44.001Z,7.60
2023-05-21T03:42:10.529Z,6.60
2023-05-21T03:44:37.090Z,9.87
2023-05-21T03:47:03.677Z,6.87
2023-05-21T03:49:30.300Z,6.40
2023-05-21T03:51:56.852Z,6.83
2023-05-21T03:54:23.414Z,7.20
2023-05-21T03:56:50.327Z,7.30
2023-05-21T03:59:16.949Z,6.83
2023-05-21T04:01:44.011Z,8.53
2023-05-21T04:04:10.807Z,6.07
2023-05-21T04:06:40.019Z,8.13
2023-05-21T04:09:06.524Z,7.03
2023-05-21T04:11:34.008Z,7.30
2023-05-21T04:14:01.348Z,5.77
2023-05-21T04:16:27.960Z,7.70
2023-05-21T04:18:55.712Z,6.70
2023-05-21T04:21:22.479Z,6.50
2023-05-21T04:23:49.182Z,7.80
2023-05-21T04:26:16.395Z,6.40
2023-05-21T04:28:42.960Z,8.07
2023-05-21T04:31:09.543Z,8.50
2023-05-21T04:33:36.083Z,7.87
2023-05-21T04:36:04.885Z,5.80
2023-05-21T04:38:31.459Z,7.70
2023-05-21T04:40:58.926Z,8.47
2023-05-21T04:43:28.884Z,9.10
2023-05-21T04:45:55.748Z,6.43
2023-05-21T04:48:25.049Z,7.90
2023-05-21T04:50:53.228Z,7.27
2023-05-21T04:53:19.868Z,6.40
2023-05-21T04:55:47.194Z,8.70
2023-05-21T04:58:13.898Z,7.70
2023-05-21T05:00:42.332Z,7.67
2023-05-21T05:03:09.173Z,8.47
2023-05-21T05:05:36.034Z,9.67
2023-05-21T05:08:02.918Z,7.50
2023-05-21T05:10:29.690Z,7.50
2023-05-21T05:12:56.205Z,7.07
2023-05-21T05:15:22.799Z,8.80
2023-05-21T05:17:50.708Z,7.50
2023-05-21T05:20:17.349Z,6.80
2023-05-21T05:22:43.881Z,7.93
2023-05-21T05:25:10.446Z,9.73
2023-05-21T05:27:38.512Z,6.87
2023-05-21T05:30:05.525Z,8.07
2023-05-21T05:32:32.133Z,7.80
2023-05-21T05:35:00.356Z,7.77
2023-05-21T05:37:28.089Z,9.67
2023-05-21T05:39:54.977Z,9.40
2023-05-21T05:42:21.532Z,8.00
2023-05-21T05:44:48.131Z,8.27
2023-05-21T05:47:14.798Z,7.83
2023-05-21T05:49:41.839Z,7.73
2023-05-21T05:52:08.498Z,7.70
2023-05-21T05:54:35.000Z,10.40
2023-05-21T05:57:01.619Z,7.20
2023-05-21T05:59:28.147Z,10.47
2023-05-21T06:01:54.748Z,7.97
2023-05-21T06:04:21.315Z,7.30
2023-05-21T06:06:48.414Z,9.27
2023-05-21T06:09:15.056Z,8.03
2023-05-21T06:11:41.609Z,7.23
2023-05-21T06:14:08.170Z,12.63
2023-05-21T06:16:35.165Z,11.90
2023-05-21T06:19:01.735Z,10.27
2023-05-21T06:21:28.633Z,9.50
2023-05-21T06:23:55.129Z,10.57
2023-05-21T06:26:22.603Z,7.90
2023-05-21T06:28:49.184Z,9.57
2023-05-21T06:31:16.532Z,8.17
2023-05-21T06:33:43.251Z,8.20
2023-05-21T06:36:09.943Z,9.13
2023-05-21T06:38:36.526Z,8.57
2023-05-21T06:41:04.345Z,8.17
2023-05-21T06:43:30.916Z,10.57
2023-05-21T06:45:57.572Z,9.27
2023-05-21T06:48:24.141Z,8.17
2023-05-21T06:50:50.862Z,9.43
2023-05-21T06:53:17.483Z,8.70
2023-05-21T06:55:45.136Z,10.50
2023-05-21T06:58:11.979Z,9.37
2023-05-21T07:00:38.502Z,10.23
2023-05-21T07:03:05.101Z,10.63
2023-05-21T07:05:31.714Z,9.60
2023-05-21T07:07:58.275Z,9.50
2023-05-21T07:10:24.812Z,8.40
2023-05-21T07:12:51.346Z,8.10
2023-05-21T07:15:17.939Z,8.00
2023-05-21T07:17:44.716Z,9.00
2023-05-21T07:20:11.803Z,9.33
2023-05-21T07:22:39.071Z,8.70
2023-05-21T07:25:06.501Z,10.20
2023-05-21T07:27:33.030Z,9.70
2023-05-21T07:29:59.531Z,10.43
2023-05-21T07:32:27.068Z,9.43
2023-05-21T07:34:54.397Z,9.57
2023-05-21T07:37:21.308Z,9.47
2023-05-21T07:39:47.944Z,10.73
2023-05-21T07:42:14.541Z,11.37
2023-05-21T07:44:43.876Z,10.53
2023-05-21T07:47:10.444Z,12.97
2023-05-21T07:49:37.017Z,10.73
2023-05-21T07:52:03.707Z,10.60
2023-05-21T07:54:30.255Z,10.87
2023-05-21T07:56:56.867Z,12.37
2023-05-21T07:59:23.418Z,9.73
2023-05-21T08:01:50.331Z,11.30
2023-05-21T08:04:17.098Z,11.57
2023-05-21T08:06:44.562Z,10.13
2023-05-21T08:09:12.386Z,11.13
2023-05-21T08:11:38.923Z,12.60
2023-05-21T08:14:05.570Z,10.97
2023-05-21T08:16:32.311Z,14.43
2023-05-21T08:18:58.949Z,11.30
2023-05-21T08:21:26.101Z,12.27
2023-05-21T08:23:52.851Z,11.63
2023-05-21T08:26:19.911Z,11.73
2023-05-21T08:28:46.450Z,11.20
2023-05-21T08:31:13.009Z,11.87
2023-05-21T08:33:39.598Z,10.80
2023-05-21T08:36:09.242Z,11.33
2023-05-21T08:38:36.803Z,14.50
2023-05-21T08:41:05.130Z,14.43
2023-05-21T08:43:31.706Z,11.63
2023-05-21T08:46:00.620Z,11.57
2023-05-21T08:48:27.394Z,11.83
2023-05-21T08:50:54.469Z,11.57
2023-05-21T08:53:28.066Z,12.67
2023-05-21T08:55:56.432Z,11.83
2023-05-21T08:58:23.086Z,12.40
2023-05-21T09:00:49.816Z,12.47
2023-05-21T09:03:16.687Z,11.53
2023-05-21T09:05:44.422Z,12.87
2023-05-21T09:08:19.252Z,12.03
2023-05-21T09:10:48.275Z,12.17
2023-05-21T09:13:15.316Z,12.03
2023-05-21T09:15:42.065Z,11.70
2023-05-21T09:18:08.731Z,12.10
2023-05-21T09:20:35.358Z,17.30
2023-05-21T09:23:06.226Z,11.83
2023-05-21T09:25:33.373Z,15.27
2023-05-21T09:27:59.914Z,14.00
2023-05-21T09:30:34.841Z,13.20
2023-05-21T09:33:03.675Z,15.47
2023-05-21T09:35:30.260Z,17.33
2023-05-21T09:37:57.732Z,15.37
2023-05-21T09:40:24.562Z,12.57
2023-05-21T09:42:52.261Z,13.97
2023-05-21T09:45:18.867Z,15.23
2023-05-21T09:47:46.466Z,15.00
2023-05-21T09:50:23.146Z,13.70
2023-05-21T09:52:51.252Z,13.43
2023-05-21T09:55:17.759Z,13.37
2023-05-21T09:57:45.096Z,15.03
2023-05-21T10:00:24.918Z,13.83
2023-05-21T10:02:54.891Z,15.70
2023-05-21T10:05:25.461Z,13.90
2023-05-21T10:07:52.922Z,16.13
2023-05-21T10:10:21.432Z,14.60
2023-05-21T10:12:50.289Z,14.97
2023-05-21T10:15:17.595Z,14.23
2023-05-21T10:17:44.751Z,15.63
2023-05-21T10:20:11.582Z,16.63
2023-05-21T10:22:38.305Z,16.13
2023-05-21T10:25:05.754Z,14.50
2023-05-21T10:27:32.920Z,14.57
2023-05-21T10:29:59.779Z,14.27
2023-05-21T10:32:27.029Z,17.40
2023-05-21T10:34:54.138Z,14.60
2023-05-21T10:37:23.101Z,16.40
2023-05-21T10:39:50.794Z,14.80
2023-05-21T10:42:24.888Z,16.07
2023-05-21T10:44:54.457Z,13.80
2023-05-21T10:47:37.409Z,15.57
2023-05-21T10:50:12.208Z,14.60
2023-05-21T10:52:46.197Z,16.70
2023-05-21T10:55:27.859Z,14.37
2023-05-21T10:58:13.129Z,13.43
2023-05-21T11:00:41.150Z,14.70
2023-05-21T11:03:08.296Z,14.47
2023-05-21T11:05:55.414Z,13.87
2023-05-21T11:08:29.134Z,14.30
2023-05-21T11:10:58.134Z,16.97
2023-05-21T11:13:25.561Z,16.40
2023-05-21T11:15:57.953Z,16.73
2023-05-21T11:18:44.496Z,14.10
2023-05-21T11:21:11.982Z,15.77
2023-05-21T11:23:53.595Z,15.53
2023-05-21T11:26:24.041Z,16.97
2023-05-21T11:28:50.916Z,14.63
2023-05-21T11:31:27.169Z,15.00
2023-05-21T11:34:09.123Z,15.53
2023-05-21T11:36:37.620Z,15.70
2023-05-21T11:39:21.876Z,14.87
2023-05-21T11:41:51.277Z,14.40
2023-05-21T11:44:17.835Z,13.37
2023-05-21T11:46:44.383Z,14.67
2023-05-21T11:49:11.092Z,14.60
2023-05-21T11:51:37.658Z,13.83
2023-05-21T11:54:04.265Z,15.03
2023-05-21T11:56:32.056Z,14.70
2023-05-21T11:58:58.589Z,21.87
2023-05-21T12:01:25.122Z,12.97
2023-05-21T12:03:52.162Z,15.30
2023-05-21T12:06:18.778Z,14.23
2023-05-21T12:08:51.177Z,18.30
2023-05-21T12:11:17.867Z,15.67
2023-05-21T12:13:44.436Z,15.83
2023-05-21T12:16:11.981Z,15.27
2023-05-21T12:18:38.716Z,16.00
2023-05-21T12:21:09.245Z,17.23
2023-05-21T12:23:37.157Z,16.60
2023-05-21T12:26:03.959Z,14.60
2023-05-21T12:28:30.906Z,15.17
2023-05-21T12:30:57.400Z,17.27
2023-05-21T12:33:26.169Z,14.77
2023-05-21T12:35:52.808Z,17.73
2023-05-21T12:38:19.453Z,18.00
2023-05-21T12:40:46.089Z,15.33
2023-05-21T12:43:13.132Z,17.53
2023-05-21T12:45:39.806Z,15.57
2023-05-21T12:48:06.623Z,16.33
2023-05-21T12:50:33.178Z,15.33
2023-05-21T12:52:59.713Z,14.60
2023-05-21T12:55:26.706Z,15.93
2023-05-21T12:58:08.494Z,15.13
2023-05-21T13:00:35.960Z,16.83
2023-05-21T13:03:04.823Z,14.67
2023-05-21T13:05:31.591Z,15.13
2023-05-21T13:07:58.164Z,16.30
2023-05-21T13:10:24.702Z,14.47
2023-05-21T13:12:51.275Z,15.87
2023-05-21T13:15:18.374Z,18.03
2023-05-21T13:17:44.982Z,16.43
2023-05-21T13:20:15.589Z,14.57
2023-05-21T13:22:49.283Z,20.50
2023-05-21T13:25:21.425Z,14.93
2023-05-21T13:27:51.988Z,15.30
2023-05-21T13:30:18.986Z,13.47
2023-05-21T13:32:45.926Z,14.10
2023-05-21T13:35:12.672Z,16.47
2023-05-21T13:37:40.205Z,13.93
2023-05-21T13:40:07.627Z,15.80
2023-05-21T13:42:34.862Z,13.10
2023-05-21T13:45:01.514Z,15.03
2023-05-21T13:47:28.338Z,14.57
2023-05-21T13:49:54.892Z,15.17
2023-05-21T13:52:21.936Z,15.23
2023-05-21T13:54:48.522Z,12.87
2023-05-21T13:57:15.295Z,14.00
2023-05-21T13:59:41.875Z,16.57
2023-05-21T14:02:09.154Z,13.40
2023-05-21T14:04:38.405Z,13.00
2023-05-21T14:07:05.931Z,14.67
2023-05-21T14:09:32.478Z,13.83
2023-05-21T14:11:59.030Z,13.83
2023-05-21T14:14:25.881Z,14.90
2023-05-21T14:16:52.477Z,14.43
2023-05-21T14:19:19.188Z,13.63
2023-05-21T14:21:45.805Z,19.43
2023-05-21T14:24:12.304Z,14.83
2023-05-21T14:26:41.121Z,13.70
2023-05-21T14:29:07.779Z,15.70
2023-05-21T14:31:34.370Z,13.60
2023-05-21T14:34:01.931Z,13.60
2023-05-21T14:36:28.621Z,12.97
2023-05-21T14:38:57.435Z,14.87
2023-05-21T14:41:29.578Z,14.20
2023-05-21T14:43:56.191Z,12.20
2023-05-21T14:46:22.823Z,13.27
2023-05-21T14:48:49.573Z,14.10
2023-05-21T14:51:16.373Z,12.67
2023-05-21T14:53:43.006Z,12.10
2023-05-21T14:56:09.559Z,14.03
2023-05-21T14:58:36.152Z,13.33
2023-05-21T15:01:04.292Z,12.67
2023-05-21T15:03:31.202Z,14.80
2023-05-21T15:06:00.604Z,18.23
2023-05-21T15:08:27.186Z,14.63
2023-05-21T15:10:53.708Z,16.13
2023-05-21T15:13:21.596Z,17.67
2023-05-21T15:15:48.260Z,13.27
2023-05-21T15:18:14.856Z,14.57
2023-05-21T15:20:41.518Z,12.90
2023-05-21T15:23:16.957Z,14.90
2023-05-21T15:25:44.250Z,15.90
2023-05-21T15:28:12.253Z,13.03
2023-05-21T15:30:39.161Z,12.93
2023-05-21T15:33:05.981Z,15.20
2023-05-21T15:35:32.693Z,13.47
2023-05-21T15:37:59.412Z,13.33
2023-05-21T15:40:27.248Z,13.30
2023-05-21T15:42:54.108Z,14.20
2023-05-21T15:45:20.786Z,12.93
2023-05-21T15:47:47.504Z,13.10
2023-05-21T15:50:14.151Z,12.33
2023-05-21T15:52:41.389Z,18.57
2023-05-21T15:55:08.129Z,11.50
2023-05-21T15:57:34.661Z,11.57
2023-05-21T16:00:01.694Z,13.70
2023-05-21T16:02:28.323Z,13.33
2023-05-21T16:04:55.166Z,12.27
2023-05-21T16:07:23.248Z,12.70
2023-05-21T16:09:49.837Z,12.17
2023-05-21T16:12:16.820Z,12.53
2023-05-21T16:14:43.403Z,14.17
2023-05-21T16:17:10.023Z,12.13
2023-05-21T16:19:36.717Z,13.30
2023-05-21T16:22:03.354Z,13.63
2023-05-21T16:24:29.964Z,12.67
2023-05-21T16:26:56.575Z,13.27
2023-05-21T16:29:23.104Z,12.97
2023-05-21T16:31:49.717Z,13.43
2023-05-21T16:34:16.480Z,14.93
2023-05-21T16:36:43.004Z,13.00
2023-05-21T16:39:09.567Z,13.63
2023-05-21T16:41:36.094Z,13.40
2023-05-21T16:44:02.634Z,15.50
2023-05-21T16:46:29.571Z,13.03
2023-05-21T16:48:56.163Z,16.37
2023-05-21T16:51:22.678Z,14.80
2023-05-21T16:53:49.214Z,13.50
2023-05-21T16:56:16.020Z,14.63
2023-05-21T16:58:42.597Z,14.10
2023-05-21T17:01:09.152Z,13.77
2023-05-21T17:03:36.291Z,15.87
2023-05-21T17:06:02.959Z,14.23
2023-05-21T17:08:29.496Z,13.73
2023-05-21T17:10:56.173Z,14.27
2023-05-21T17:13:23.412Z,14.83
2023-05-21T17:15:53.324Z,13.53
2023-05-21T17:18:20.025Z,14.23
2023-05-21T17:20:46.675Z,13.30
2023-05-21T17:23:13.292Z,13.10
2023-05-21T17:25:40.630Z,13.33
2023-05-21T17:28:07.580Z,14.50
2023-05-21T17:30:34.198Z,13.50
2023-05-21T17:33:02.350Z,14.20
2023-05-21T17:35:29.060Z,14.93
2023-05-21T17:37:55.645Z,13.53
2023-05-21T17:40:24.632Z,14.07
2023-05-21T17:42:51.950Z,12.70
2023-05-21T17:45:18.800Z,12.83
2023-05-21T17:47:45.544Z,14.37
2023-05-21T17:50:12.267Z,14.50
2023-05-21T17:52:38.856Z,12.80
2023-05-21T17:55:05.885Z,14.97
2023-05-21T17:57:32.444Z,13.50
2023-05-21T17:59:59.006Z,18.60
2023-05-21T18:02:27.553Z,14.00
2023-05-21T18:04:54.242Z,15.07
2023-05-21T18:07:22.371Z,16.37
2023-05-21T18:09:48.926Z,15.60
2023-05-21T18:12:15.833Z,14.40
2023-05-21T18:14:42.391Z,15.80
2023-05-21T18:17:09.046Z,15.50
2023-05-21T18:19:35.818Z,15.23
2023-05-21T18:22:02.518Z,16.20
2023-05-21T18:24:29.103Z,16.93
2023-05-21T18:26:56.423Z,16.47
2023-05-21T18:29:22.935Z,15.37
2023-05-21T18:31:49.553Z,16.70
2023-05-21T18:34:17.527Z,15.37
2023-05-21T18:36:44.212Z,15.73
2023-05-21T18:39:10.741Z,15.60
2023-05-21T18:41:37.647Z,15.17
2023-05-21T18:44:06.097Z,16.70
2023-05-21T18:46:33.270Z,16.03
2023-05-21T18:49:00.595Z,14.73
2023-05-21T18:51:27.203Z,18.87
2023-05-21T18:53:53.801Z,20.50
2023-05-21T18:56:21.938Z,15.30
2023-05-21T18:58:48.728Z,16.20
2023-05-21T19:01:15.610Z,16.07
2023-05-21T19:03:42.270Z,19.77
2023-05-21T19:06:09.037Z,15.67
2023-05-21T19:08:35.983Z,15.40
2023-05-21T19:11:02.584Z,16.83
2023-05-21T19:13:29.629Z,16.27
2023-05-21T19:15:57.537Z,15.13
2023-05-21T19:18:30.372Z,16.30
2023-05-21T19:20:57.336Z,15.10
2023-05-21T19:23:24.939Z,16.03
2023-05-21T19:25:51.608Z,14.80
2023-05-21T19:28:18.966Z,15.47
2023-05-21T19:30:46.476Z,16.30
2023-05-21T19:33:13.342Z,16.33
2023-05-21T19:35:41.711Z,16.90
2023-05-21T19:38:10.446Z,15.90
2023-05-21T19:40:37.105Z,16.00
2023-05-21T19:43:03.958Z,16.47
2023-05-21T19:45:30.502Z,15.43
2023-05-21T19:47:57.421Z,16.60
2023-05-21T19:50:24.739Z,16.77
2023-05-21T19:52:51.358Z,16.47
2023-05-21T19:55:20.379Z,17.80
2023-05-21T19:57:47.413Z,19.37
2023-05-21T20:00:14.671Z,18.13
2023-05-21T20:02:43.498Z,20.57
2023-05-21T20:05:10.203Z,19.17
2023-05-21T20:07:36.730Z,19.63
2023-05-21T20:10:03.421Z,20.70
2023-05-21T20:12:30.010Z,21.23
2023-05-21T20:14:57.044Z,20.07
2023-05-21T20:17:24.636Z,19.47
2023-05-21T20:19:51.196Z,20.77
2023-05-21T20:22:18.029Z,21.37
2023-05-21T20:24:44.544Z,20.90
2023-05-21T20:27:20.130Z,21.93
2023-05-21T20:29:46.920Z,22.50
2023-05-21T20:32:13.514Z,28.17
2023-05-21T20:34:54.240Z,30.73
2023-05-21T20:37:27.341Z,24.10
2023-05-21T20:39:58.000Z,23.13
2023-05-21T20:42:28.573Z,22.70
2023-05-21T20:44:55.596Z,19.70
2023-05-21T20:47:23.523Z,21.97
2023-05-21T20:49:53.777Z,21.37
2023-05-21T20:52:21.112Z,25.63
2023-05-21T20:54:49.018Z,26.93
2023-05-21T20:57:15.959Z,28.57
2023-05-21T20:59:43.242Z,26.43
2023-05-21T21:02:11.108Z,26.20
2023-05-21T21:04:38.173Z,26.07
2023-05-21T21:07:08.124Z,30.20
2023-05-21T21:09:34.726Z,27.13
2023-05-21T21:12:11.368Z,26.70
2023-05-21T21:14:48.009Z,28.70
2023-05-21T21:17:14.734Z,30.53
2023-05-21T21:19:41.384Z,27.90
2023-05-21T21:22:07.906Z,26.43
2023-05-21T21:24:34.521Z,26.23
2023-05-21T21:27:01.556Z,27.70
2023-05-21T21:29:28.080Z,26.50
2023-05-21T21:31:54.876Z,26.10
2023-05-21T21:34:23.555Z,27.43
2023-05-21T21:36:50.850Z,28.87
2023-05-21T21:39:17.758Z,26.97
2023-05-21T21:41:44.425Z,26.67
2023-05-21T21:44:10.976Z,26.07
2023-05-21T21:46:37.605Z,25.63
2023-05-21T21:49:04.447Z,26.90
2023-05-21T21:51:31.066Z,28.33
2023-05-21T21:53:57.593Z,27.83
2023-05-21T21:56:24.124Z,25.27
2023-05-21T21:58:50.718Z,26.33
2023-05-21T22:01:17.628Z,26.00
2023-05-21T22:03:44.228Z,24.87
2023-05-21T22:06:10.806Z,25.27
2023-05-21T22:08:37.361Z,24.07
2023-05-21T22:11:03.950Z,23.23
2023-05-21T22:13:30.494Z,25.10
2023-05-21T22:15:57.540Z,28.13
2023-05-21T22:18:38.779Z,26.33
2023-05-21T22:21:09.942Z,24.77
2023-05-21T22:23:37.275Z,26.33
2023-05-21T22:26:03.995Z,22.97
2023-05-21T22:28:36.280Z,27.20
2023-05-21T22:31:03.128Z,23.67
2023-05-21T22:33:29.956Z,22.30
2023-05-21T22:35:57.048Z,20.73
2023-05-21T22:38:23.615Z,18.83
2023-05-21T22:40:50.187Z,21.13
2023-05-21T22:43:16.801Z,19.73
2023-05-21T22:45:44.480Z,18.17
2023-05-21T22:48:11.087Z,19.00
2023-05-21T22:50:39.512Z,20.20
2023-05-21T22:53:06.651Z,21.90
2023-05-21T22:55:33.227Z,19.50
2023-05-21T22:57:59.818Z,17.20
2023-05-21T23:00:26.687Z,18.77
2023-05-21T23:02:54.566Z,17.37
2023-05-21T23:05:21.814Z,20.40
2023-05-21T23:07:48.380Z,21.53
2023-05-21T23:10:14.970Z,22.93
2023-05-21T23:12:41.714Z,19.33
2023-05-21T23:15:10.122Z,20.03
2023-05-21T23:17:37.176Z,22.17
2023-05-21T23:20:04.255Z,24.10
2023-05-21T23:22:30.884Z,23.70
2023-05-21T23:24:57.432Z,19.47
2023-05-21T23:27:24.176Z,24.80
2023-05-21T23:29:50.774Z,20.47
2023-05-21T23:32:17.353Z,21.87
2023-05-21T23:34:43.894Z,18.83
2023-05-21T23:37:10.965Z,20.63
2023-05-21T23:39:37.636Z,18.67
2023-05-21T23:42:04.408Z,18.03
2023-05-21T23:44:30.964Z,19.37
2023-05-21T23:46:57.524Z,16.97
2023-05-21T23:49:24.047Z,17.97
2023-05-21T23:51:51.002Z,15.33
2023-05-21T23:54:17.662Z,15.50
2023-05-21T23:56:44.236Z,15.20
2023-05-21T23:59:11.091Z,14.77
